METAR|ÜBERSETZT|TAF
EDHK 271120Z 15007KT 120V180 9999 FEW028 BKN035 20/15 Q1015
Login|Impressum|Kontakt



Anfahrt zum Luftsportverein Kiel

Aus Richtung Süden folgen Sie der Beschilderung "Olympia Zentrum". Auf der Bundesstraße B503 überqueren Sie die Holtenauer Hochbrücke mit Blick auf die Kanal-Schleusen. Anschließend folgen Sie der Beschilderung "Flughafen" (Ausfahrt Friedrichsort) und danach gleich wieder rechts... Nun stehen Sie auf dem Flughafengelände. Den Luftsportverein Kiel finden Sie in der großen Halle schräg links.
>Lageplan


Größere Kartenansicht